createdAt,value
2017-10-02T00:02:21.639Z,24.90
2017-10-02T00:04:49.289Z,26.93
2017-10-02T00:07:16.872Z,24.93
2017-10-02T00:09:44.495Z,25.40
2017-10-02T00:12:12.058Z,26.13
2017-10-02T00:14:40.527Z,26.00
2017-10-02T00:17:08.889Z,27.17
2017-10-02T00:19:36.443Z,24.47
2017-10-02T00:22:04.440Z,25.27
2017-10-02T00:24:32.175Z,23.90
2017-10-02T00:26:59.735Z,25.67
2017-10-02T00:29:27.328Z,24.10
2017-10-02T00:31:55.673Z,24.10
2017-10-02T00:34:23.443Z,24.20
2017-10-02T00:36:51.808Z,24.00
2017-10-02T00:39:19.401Z,24.53
2017-10-02T00:41:47.057Z,22.93
2017-10-02T00:44:15.559Z,24.80
2017-10-02T00:46:43.608Z,23.60
2017-10-02T00:49:11.203Z,23.43
2017-10-02T00:51:38.759Z,22.07
2017-10-02T00:54:06.375Z,24.70
2017-10-02T00:56:33.945Z,23.27
2017-10-02T00:59:01.891Z,22.87
2017-10-02T01:01:29.654Z,23.87
2017-10-02T01:03:57.243Z,25.20
2017-10-02T01:06:25.611Z,24.47
2017-10-02T01:08:53.192Z,24.13
2017-10-02T01:11:21.084Z,23.20
2017-10-02T01:13:48.651Z,23.13
2017-10-02T01:16:16.223Z,24.73
2017-10-02T01:18:43.840Z,25.53
2017-10-02T01:21:11.391Z,25.23
2017-10-02T01:23:40.091Z,24.57
2017-10-02T01:26:07.890Z,24.40
2017-10-02T01:28:35.433Z,23.47
2017-10-02T01:31:03.050Z,26.13
2017-10-02T01:33:30.609Z,25.67
2017-10-02T01:35:58.575Z,24.27
2017-10-02T01:38:26.119Z,23.00
2017-10-02T01:40:53.681Z,26.10
2017-10-02T01:43:21.383Z,23.33
2017-10-02T01:45:49.774Z,24.43
2017-10-02T01:48:17.684Z,24.13
2017-10-02T01:50:45.521Z,23.63
2017-10-02T01:53:13.084Z,24.80
2017-10-02T01:55:40.689Z,22.70
2017-10-02T01:58:08.284Z,23.27
2017-10-02T02:00:36.214Z,20.57
2017-10-02T02:03:03.776Z,23.43
2017-10-02T02:05:31.335Z,24.00
2017-10-02T02:07:58.949Z,23.53
2017-10-02T02:10:26.495Z,23.03
2017-10-02T02:12:54.287Z,23.83
2017-10-02T02:15:21.879Z,22.83
2017-10-02T02:17:49.504Z,23.17
2017-10-02T02:20:17.114Z,23.37
2017-10-02T02:22:45.460Z,24.27
2017-10-02T02:25:13.439Z,22.90
2017-10-02T02:27:41.037Z,21.37
2017-10-02T02:30:08.626Z,23.30
2017-10-02T02:32:36.231Z,25.03
2017-10-02T02:35:03.849Z,23.17
2017-10-02T02:37:31.734Z,22.00
2017-10-02T02:39:59.291Z,23.33
2017-10-02T02:42:26.853Z,22.37
2017-10-02T02:44:54.533Z,22.40
2017-10-02T02:47:22.102Z,22.03
2017-10-02T02:49:50.072Z,22.30
2017-10-02T02:52:17.625Z,22.20
2017-10-02T02:54:45.198Z,21.80
2017-10-02T02:57:13.782Z,19.97
2017-10-02T02:59:41.397Z,21.20
2017-10-02T03:02:09.387Z,24.00
2017-10-02T03:04:36.952Z,20.97
2017-10-02T03:07:04.508Z,22.70
2017-10-02T03:09:32.126Z,21.60
2017-10-02T03:11:59.690Z,20.87
2017-10-02T03:14:27.544Z,21.20
2017-10-02T03:16:55.118Z,21.50
2017-10-02T03:19:22.674Z,21.53
2017-10-02T03:21:50.466Z,22.40
2017-10-02T03:24:18.025Z,23.23
2017-10-02T03:26:45.806Z,21.33
2017-10-02T03:29:13.351Z,20.70
2017-10-02T03:31:40.913Z,21.00
2017-10-02T03:34:08.550Z,22.63
2017-10-02T03:36:36.107Z,21.40
2017-10-02T03:39:03.720Z,21.70
2017-10-02T03:41:32.046Z,21.40
2017-10-02T03:43:59.603Z,22.20
2017-10-02T03:46:27.236Z,21.30
2017-10-02T03:48:54.847Z,20.07
2017-10-02T03:51:22.455Z,21.20
2017-10-02T03:53:50.791Z,21.53
2017-10-02T03:56:18.368Z,20.30
2017-10-02T03:58:46.212Z,23.27
2017-10-02T04:01:13.777Z,20.97
2017-10-02T04:03:41.743Z,20.27
2017-10-02T04:06:09.350Z,21.80
2017-10-02T04:08:36.959Z,21.07
2017-10-02T04:11:04.586Z,23.67
2017-10-02T04:13:32.151Z,23.90
2017-10-02T04:15:59.773Z,22.50
2017-10-02T04:18:27.346Z,22.83
2017-10-02T04:20:55.668Z,24.00
2017-10-02T04:23:23.268Z,20.43
2017-10-02T04:25:51.599Z,22.03
2017-10-02T04:28:19.292Z,20.60
2017-10-02T04:30:46.860Z,21.13
2017-10-02T04:33:14.431Z,21.23
2017-10-02T04:35:42.028Z,22.77
2017-10-02T04:38:09.588Z,21.83
2017-10-02T04:40:37.686Z,22.37
2017-10-02T04:43:05.261Z,20.30
2017-10-02T04:45:32.831Z,22.37
2017-10-02T04:48:02.266Z,23.60
2017-10-02T04:50:29.840Z,21.23
2017-10-02T04:52:57.739Z,21.27
2017-10-02T04:55:25.318Z,21.83
2017-10-02T04:57:53.007Z,22.80
2017-10-02T05:00:21.372Z,21.87
2017-10-02T05:02:48.982Z,20.80
2017-10-02T05:05:16.849Z,23.70
2017-10-02T05:07:44.404Z,24.30
2017-10-02T05:10:12.824Z,21.67
2017-10-02T05:12:40.410Z,21.57
2017-10-02T05:15:09.028Z,21.80
2017-10-02T05:17:36.651Z,20.90
2017-10-02T05:20:04.214Z,22.23
2017-10-02T05:22:32.553Z,23.50
2017-10-02T05:25:00.150Z,24.30
2017-10-02T05:27:29.066Z,23.80
2017-10-02T05:29:56.707Z,25.03
2017-10-02T05:32:25.070Z,25.30
2017-10-02T05:34:52.655Z,25.13
2017-10-02T05:37:20.263Z,26.73
2017-10-02T05:39:47.859Z,27.07
2017-10-02T05:42:15.760Z,27.80
2017-10-02T05:44:43.340Z,27.93
2017-10-02T05:47:10.915Z,27.80
2017-10-02T05:49:38.511Z,26.77
2017-10-02T05:52:06.065Z,28.80
2017-10-02T05:54:34.435Z,28.07
2017-10-02T05:57:02.009Z,27.80
2017-10-02T05:59:30.327Z,31.63
2017-10-02T06:01:58.128Z,33.70
2017-10-02T06:04:25.695Z,34.07
2017-10-02T06:06:53.331Z,34.47
2017-10-02T06:09:20.906Z,35.73
2017-10-02T06:11:48.476Z,32.87
2017-10-02T06:14:16.104Z,34.43
2017-10-02T06:16:43.679Z,35.47
2017-10-02T06:19:11.794Z,35.53
2017-10-02T06:21:39.342Z,36.03
2017-10-02T06:24:06.887Z,38.50
2017-10-02T06:26:35.277Z,38.03
2017-10-02T06:29:03.007Z,39.20
2017-10-02T06:31:30.840Z,39.43
2017-10-02T06:33:58.503Z,39.87
2017-10-02T06:36:26.065Z,40.40
2017-10-02T06:38:53.683Z,38.90
2017-10-02T06:41:22.025Z,38.43
2017-10-02T06:43:49.651Z,39.33
2017-10-02T06:46:17.182Z,38.87
2017-10-02T06:48:44.728Z,37.53
2017-10-02T06:51:12.339Z,40.60
2017-10-02T06:53:39.896Z,37.93
2017-10-02T06:56:07.504Z,38.33
2017-10-02T06:58:35.080Z,40.33
2017-10-02T07:01:02.630Z,39.80
2017-10-02T07:03:30.223Z,39.70
2017-10-02T07:05:57.781Z,38.20
2017-10-02T07:08:25.399Z,39.03
2017-10-02T07:10:53.083Z,39.50
2017-10-02T07:13:21.410Z,38.00
2017-10-02T07:15:49.006Z,37.67
2017-10-02T07:18:16.617Z,37.23
2017-10-02T07:20:44.725Z,37.90
2017-10-02T07:23:12.296Z,41.57
2017-10-02T07:25:39.871Z,40.00
2017-10-02T07:28:08.363Z,38.43
2017-10-02T07:30:36.695Z,40.40
2017-10-02T07:33:04.334Z,40.47
2017-10-02T07:35:31.898Z,37.73
2017-10-02T07:37:59.475Z,38.70
2017-10-02T07:40:27.075Z,36.23
2017-10-02T07:42:55.395Z,37.27
2017-10-02T07:45:23.119Z,38.40
2017-10-02T07:47:51.471Z,39.20
2017-10-02T07:50:19.052Z,37.30
2017-10-02T07:52:46.697Z,37.30
2017-10-02T07:55:14.274Z,39.37
2017-10-02T07:57:42.694Z,36.43
2017-10-02T08:00:10.321Z,35.87
2017-10-02T08:02:38.673Z,34.90
2017-10-02T08:05:07.092Z,35.37
2017-10-02T08:07:34.670Z,35.63
2017-10-02T08:10:02.316Z,33.77
2017-10-02T08:12:29.908Z,30.80
2017-10-02T08:14:57.508Z,30.33
2017-10-02T08:17:25.104Z,25.10
2017-10-02T08:19:52.686Z,17.37
2017-10-02T08:22:20.376Z,16.47
2017-10-02T08:24:47.950Z,11.20
2017-10-02T08:27:15.611Z,9.23
2017-10-02T08:29:43.280Z,9.70
2017-10-02T08:32:10.843Z,8.37
2017-10-02T08:34:39.283Z,6.03
2017-10-02T08:37:06.828Z,8.07
2017-10-02T08:39:35.161Z,7.77
2017-10-02T08:42:02.783Z,7.03
2017-10-02T08:44:30.375Z,6.50
2017-10-02T08:46:58.782Z,7.10
2017-10-02T08:49:26.406Z,7.17
2017-10-02T08:51:53.971Z,5.80
2017-10-02T08:54:22.363Z,6.40
2017-10-02T08:56:50.564Z,6.13
2017-10-02T08:59:18.186Z,7.20
2017-10-02T09:01:46.497Z,5.50
2017-10-02T09:04:14.094Z,6.13
2017-10-02T09:06:41.700Z,5.07
2017-10-02T09:09:09.332Z,5.40
2017-10-02T09:11:36.972Z,5.27
2017-10-02T09:14:04.546Z,5.20
2017-10-02T09:16:33.016Z,4.67
2017-10-02T09:19:00.637Z,4.53
2017-10-02T09:21:28.196Z,4.53
2017-10-02T09:23:55.821Z,4.77
2017-10-02T09:26:24.174Z,5.00
2017-10-02T09:28:51.743Z,4.60
2017-10-02T09:31:19.380Z,3.50
2017-10-02T09:33:47.748Z,3.67
2017-10-02T09:36:15.393Z,4.30
2017-10-02T09:38:42.944Z,3.40
2017-10-02T09:41:10.495Z,3.57
2017-10-02T09:43:38.864Z,2.87
2017-10-02T09:46:06.474Z,3.20
2017-10-02T09:48:34.076Z,3.10
2017-10-02T09:51:02.397Z,3.47
2017-10-02T09:53:29.955Z,2.93
2017-10-02T09:55:57.563Z,3.10
2017-10-02T09:58:25.124Z,3.27
2017-10-02T10:00:52.780Z,2.90
2017-10-02T10:03:20.327Z,3.40
2017-10-02T10:05:47.881Z,3.20
2017-10-02T10:08:15.487Z,3.27
2017-10-02T10:10:43.039Z,2.90
2017-10-02T10:13:12.195Z,4.07
2017-10-02T10:15:39.818Z,3.00
2017-10-02T10:18:07.746Z,3.47
2017-10-02T10:20:35.403Z,4.00
2017-10-02T10:23:02.948Z,3.90
2017-10-02T10:25:31.032Z,3.67
2017-10-02T10:27:59.598Z,3.73
2017-10-02T10:30:27.180Z,4.03
2017-10-02T10:32:54.830Z,3.77
2017-10-02T10:35:22.413Z,4.27
2017-10-02T10:37:50.130Z,4.10
2017-10-02T10:40:17.683Z,5.13
2017-10-02T10:42:45.222Z,3.97
2017-10-02T10:45:13.390Z,4.57
2017-10-02T10:47:41.880Z,4.50
2017-10-02T10:50:09.607Z,4.23
2017-10-02T10:52:38.791Z,5.10
2017-10-02T10:55:07.148Z,4.60
2017-10-02T10:57:34.761Z,5.33
2017-10-02T11:00:03.201Z,5.07
2017-10-02T11:02:30.806Z,5.23
2017-10-02T11:04:58.383Z,4.43
2017-10-02T11:07:25.935Z,4.43
2017-10-02T11:09:53.596Z,4.30
2017-10-02T11:12:21.160Z,4.97
2017-10-02T11:14:48.776Z,4.50
2017-10-02T11:17:16.337Z,4.80
2017-10-02T11:19:43.911Z,4.60
2017-10-02T11:22:12.302Z,4.37
2017-10-02T11:24:39.925Z,4.17
2017-10-02T11:27:07.579Z,4.33
2017-10-02T11:29:35.382Z,3.90
2017-10-02T11:32:03.751Z,4.53
2017-10-02T11:34:31.338Z,5.40
2017-10-02T11:36:58.909Z,4.00
2017-10-02T11:39:26.514Z,3.83
2017-10-02T11:41:54.078Z,4.93
2017-10-02T11:44:21.628Z,3.33
2017-10-02T11:46:49.252Z,3.70
2017-10-02T11:49:16.859Z,3.70
2017-10-02T11:51:44.484Z,3.50
2017-10-02T11:54:12.072Z,3.03
2017-10-02T11:56:39.663Z,3.30
2017-10-02T11:59:08.065Z,3.33
2017-10-02T12:01:35.654Z,3.17
2017-10-02T12:04:03.385Z,2.50
2017-10-02T12:06:30.948Z,3.17
2017-10-02T12:08:58.520Z,3.00
2017-10-02T12:11:26.126Z,2.80
2017-10-02T12:13:53.683Z,2.60
2017-10-02T12:16:21.300Z,2.97
2017-10-02T12:18:48.867Z,3.10
2017-10-02T12:21:16.422Z,2.70
2017-10-02T12:23:44.030Z,2.57
2017-10-02T12:26:11.952Z,2.57
2017-10-02T12:28:39.643Z,2.30
2017-10-02T12:31:07.233Z,2.93
2017-10-02T12:33:34.932Z,2.70
2017-10-02T12:36:02.558Z,5.13
2017-10-02T12:38:30.132Z,3.60
2017-10-02T12:40:57.915Z,2.83
2017-10-02T12:43:25.511Z,2.77
2017-10-02T12:45:53.075Z,2.60
2017-10-02T12:48:21.331Z,3.17
2017-10-02T12:50:48.890Z,2.63
2017-10-02T12:53:16.671Z,2.50
2017-10-02T12:55:44.697Z,2.53
2017-10-02T12:58:12.260Z,2.93
2017-10-02T13:00:39.859Z,2.60
2017-10-02T13:03:07.458Z,2.90
2017-10-02T13:05:35.044Z,2.80
2017-10-02T13:08:02.648Z,3.17
2017-10-02T13:10:30.258Z,3.27
2017-10-02T13:12:57.857Z,3.93
2017-10-02T13:15:25.426Z,4.40
2017-10-02T13:17:53.050Z,3.67
2017-10-02T13:20:20.626Z,4.67
2017-10-02T13:22:48.205Z,4.30
2017-10-02T13:25:15.859Z,3.47
2017-10-02T13:27:44.832Z,4.03
2017-10-02T13:30:12.394Z,4.00
2017-10-02T13:32:40.016Z,5.40
2017-10-02T13:35:07.584Z,4.70
2017-10-02T13:37:35.373Z,4.43
2017-10-02T13:40:02.998Z,4.43
2017-10-02T13:42:30.617Z,3.60
2017-10-02T13:44:58.200Z,5.20
2017-10-02T13:47:25.805Z,5.80
2017-10-02T13:49:54.266Z,4.40
2017-10-02T13:52:21.912Z,4.80
2017-10-02T13:54:49.453Z,5.30
2017-10-02T13:57:17.001Z,6.10
2017-10-02T13:59:44.598Z,6.53
2017-10-02T14:02:12.922Z,5.77
2017-10-02T14:04:40.567Z,6.47
2017-10-02T14:07:08.162Z,6.50
2017-10-02T14:09:35.761Z,7.23
2017-10-02T14:12:03.391Z,7.37
2017-10-02T14:14:31.007Z,6.83
2017-10-02T14:16:58.771Z,7.20
2017-10-02T14:19:26.336Z,6.67
2017-10-02T14:21:53.979Z,6.57
2017-10-02T14:24:21.603Z,7.40
2017-10-02T14:26:49.168Z,6.30
2017-10-02T14:29:17.616Z,6.10
2017-10-02T14:31:45.208Z,6.30
2017-10-02T14:34:12.814Z,6.57
2017-10-02T14:36:40.419Z,8.13
2017-10-02T14:39:07.975Z,7.20
2017-10-02T14:41:35.594Z,7.80
2017-10-02T14:44:03.226Z,9.60
2017-10-02T14:46:30.794Z,11.30
2017-10-02T14:48:58.408Z,9.70
2017-10-02T14:51:26.039Z,40.47
2017-10-02T14:53:55.083Z,14.67
2017-10-02T14:56:22.635Z,43.67
2017-10-02T14:58:50.249Z,19.40
2017-10-02T15:01:18.540Z,10.80
2017-10-02T15:03:46.251Z,9.77
2017-10-02T15:06:14.654Z,11.03
2017-10-02T15:08:42.226Z,12.20
2017-10-02T15:11:09.880Z,11.97
2017-10-02T15:13:37.565Z,9.77
2017-10-02T15:16:05.222Z,8.97
2017-10-02T15:18:32.897Z,11.23
2017-10-02T15:21:00.451Z,9.13
2017-10-02T15:23:28.003Z,9.57
2017-10-02T15:25:55.631Z,12.10
2017-10-02T15:28:24.035Z,12.97
2017-10-02T15:30:51.986Z,10.93
2017-10-02T15:33:19.635Z,13.00
2017-10-02T15:35:47.248Z,9.47
2017-10-02T15:38:14.898Z,8.60
2017-10-02T15:40:42.544Z,8.70
2017-10-02T15:43:10.851Z,8.80
2017-10-02T15:45:39.265Z,6.20
2017-10-02T15:48:08.056Z,11.83
2017-10-02T15:50:36.428Z,7.30
2017-10-02T15:53:03.991Z,6.47
2017-10-02T15:55:32.372Z,5.77
2017-10-02T15:57:59.922Z,5.87
2017-10-02T16:00:27.478Z,6.43
2017-10-02T16:02:55.086Z,6.43
2017-10-02T16:05:22.645Z,7.00
2017-10-02T16:07:50.307Z,5.97
2017-10-02T16:10:17.899Z,6.63
2017-10-02T16:12:45.465Z,6.10
2017-10-02T16:15:13.182Z,5.80
2017-10-02T16:17:41.706Z,8.60
2017-10-02T16:20:09.400Z,9.00
2017-10-02T16:22:37.898Z,5.50
2017-10-02T16:25:05.492Z,5.80
2017-10-02T16:27:33.112Z,6.00
2017-10-02T16:30:00.736Z,5.30
2017-10-02T16:32:28.471Z,6.13
2017-10-02T16:34:56.684Z,5.97
2017-10-02T16:37:24.279Z,7.60
2017-10-02T16:39:51.917Z,5.60
2017-10-02T16:42:19.496Z,5.37
2017-10-02T16:44:47.168Z,6.50
2017-10-02T16:47:14.770Z,7.40
2017-10-02T16:49:42.339Z,6.30
2017-10-02T16:52:10.033Z,5.90
2017-10-02T16:54:37.607Z,5.77
2017-10-02T16:57:05.539Z,5.90
2017-10-02T16:59:33.171Z,5.83
2017-10-02T17:02:00.750Z,5.20
2017-10-02T17:04:28.370Z,5.13
2017-10-02T17:06:55.947Z,4.87
2017-10-02T17:09:23.547Z,4.07
2017-10-02T17:11:51.151Z,5.03
2017-10-02T17:14:19.941Z,5.20
2017-10-02T17:16:47.498Z,5.87
2017-10-02T17:19:16.558Z,5.50
2017-10-02T17:21:44.154Z,5.63
2017-10-02T17:24:11.728Z,5.90
2017-10-02T17:26:39.405Z,5.30
2017-10-02T17:29:07.007Z,5.10
2017-10-02T17:31:34.610Z,6.10
2017-10-02T17:34:02.649Z,5.83
2017-10-02T17:36:30.231Z,5.83
2017-10-02T17:38:57.863Z,6.60
2017-10-02T17:41:25.479Z,7.70
2017-10-02T17:43:53.053Z,6.90
2017-10-02T17:46:21.470Z,6.07
2017-10-02T17:48:49.203Z,6.60
2017-10-02T17:51:17.952Z,6.50
2017-10-02T17:53:45.523Z,5.10
2017-10-02T17:56:13.140Z,6.00
2017-10-02T17:58:40.756Z,6.50
2017-10-02T18:01:08.352Z,4.10
2017-10-02T18:03:37.220Z,5.27
2017-10-02T18:06:04.797Z,5.00
2017-10-02T18:08:32.367Z,6.40
2017-10-02T18:10:59.996Z,6.70
2017-10-02T18:13:27.587Z,4.47
2017-10-02T18:15:55.187Z,4.83
2017-10-02T18:18:22.775Z,6.30
2017-10-02T18:20:50.368Z,5.17
2017-10-02T18:23:18.000Z,5.27
2017-10-02T18:25:46.429Z,4.57
2017-10-02T18:28:14.035Z,4.93
2017-10-02T18:30:44.059Z,5.07
2017-10-02T18:33:11.663Z,4.10
2017-10-02T18:35:40.043Z,5.20
2017-10-02T18:38:07.598Z,4.53
2017-10-02T18:40:35.575Z,4.30
2017-10-02T18:43:03.184Z,4.10
2017-10-02T18:45:30.800Z,4.00
2017-10-02T18:47:58.490Z,4.37
2017-10-02T18:50:27.031Z,4.00
2017-10-02T18:52:54.973Z,4.40
2017-10-02T18:55:23.375Z,5.20
2017-10-02T18:57:50.968Z,4.60
2017-10-02T19:00:18.652Z,4.87
2017-10-02T19:02:46.235Z,4.47
2017-10-02T19:05:14.915Z,5.07
2017-10-02T19:07:43.248Z,4.90
2017-10-02T19:10:10.836Z,4.73
2017-10-02T19:12:38.434Z,4.70
2017-10-02T19:15:06.027Z,4.00
2017-10-02T19:17:33.623Z,4.40
2017-10-02T19:20:01.184Z,4.40
2017-10-02T19:22:28.872Z,5.00
2017-10-02T19:24:56.560Z,4.20
2017-10-02T19:27:24.143Z,5.07
2017-10-02T19:29:51.791Z,4.90
2017-10-02T19:32:19.398Z,4.43
2017-10-02T19:34:47.836Z,3.83
2017-10-02T19:37:15.449Z,3.67
2017-10-02T19:39:43.817Z,4.63
2017-10-02T19:42:12.189Z,4.00
2017-10-02T19:44:39.753Z,4.07
2017-10-02T19:47:07.375Z,4.03
2017-10-02T19:49:34.975Z,4.37
2017-10-02T19:52:02.655Z,3.00
2017-10-02T19:54:30.253Z,4.33
2017-10-02T19:56:57.836Z,4.30
2017-10-02T19:59:25.559Z,3.30
2017-10-02T20:01:53.169Z,3.33
2017-10-02T20:04:20.768Z,3.53
2017-10-02T20:06:48.398Z,3.50
2017-10-02T20:09:15.976Z,3.20
2017-10-02T20:11:44.354Z,3.93
2017-10-02T20:14:11.957Z,3.20
2017-10-02T20:16:39.514Z,2.97
2017-10-02T20:19:07.175Z,3.10
2017-10-02T20:21:34.781Z,3.43
2017-10-02T20:24:02.488Z,3.33
2017-10-02T20:26:30.079Z,3.87
2017-10-02T20:28:57.812Z,3.80
2017-10-02T20:31:25.370Z,3.70
2017-10-02T20:33:52.991Z,3.50
2017-10-02T20:36:21.343Z,3.30
2017-10-02T20:38:48.908Z,3.83
2017-10-02T20:41:16.525Z,3.70
2017-10-02T20:43:44.099Z,3.70
2017-10-02T20:46:11.966Z,3.87
2017-10-02T20:48:39.545Z,3.30
2017-10-02T20:51:07.141Z,3.60
2017-10-02T20:53:34.783Z,2.80
2017-10-02T20:56:02.379Z,3.10
2017-10-02T20:58:30.401Z,3.30
2017-10-02T21:00:57.993Z,3.27
2017-10-02T21:03:26.203Z,3.63
2017-10-02T21:05:53.832Z,3.30
2017-10-02T21:08:22.181Z,5.23
2017-10-02T21:10:49.803Z,3.57
2017-10-02T21:13:17.375Z,4.40
2017-10-02T21:15:45.002Z,3.40
2017-10-02T21:18:12.615Z,3.37
2017-10-02T21:20:40.190Z,3.03
2017-10-02T21:23:07.854Z,3.20
2017-10-02T21:25:35.397Z,3.43
2017-10-02T21:28:02.969Z,2.70
2017-10-02T21:30:30.569Z,3.70
2017-10-02T21:32:58.129Z,3.53
2017-10-02T21:35:25.996Z,3.00
2017-10-02T21:37:53.570Z,3.77
2017-10-02T21:40:21.152Z,3.27
2017-10-02T21:42:48.762Z,4.33
2017-10-02T21:45:17.090Z,3.47
2017-10-02T21:47:45.908Z,3.37
2017-10-02T21:50:13.467Z,3.30
2017-10-02T21:52:41.030Z,3.77
2017-10-02T21:55:08.659Z,3.20
2017-10-02T21:57:36.291Z,2.70
2017-10-02T22:00:03.903Z,3.73
2017-10-02T22:02:31.501Z,3.00
2017-10-02T22:04:59.944Z,2.93
2017-10-02T22:07:27.576Z,3.00
2017-10-02T22:09:55.143Z,3.47
2017-10-02T22:12:23.120Z,2.57
2017-10-02T22:14:50.667Z,2.50
2017-10-02T22:17:18.243Z,2.30
2017-10-02T22:19:45.843Z,2.07
2017-10-02T22:22:13.427Z,2.60
2017-10-02T22:24:41.043Z,2.43
2017-10-02T22:27:10.415Z,2.67
2017-10-02T22:29:39.019Z,2.70
2017-10-02T22:32:06.619Z,2.50
2017-10-02T22:34:34.178Z,2.00
2017-10-02T22:37:01.821Z,2.60
2017-10-02T22:39:30.163Z,13.83
2017-10-02T22:41:57.723Z,36.83
2017-10-02T22:44:25.430Z,2.07
2017-10-02T22:46:53.192Z,6.10
2017-10-02T22:49:21.877Z,3.13
2017-10-02T22:51:51.007Z,2.60
2017-10-02T22:54:18.583Z,3.33
2017-10-02T22:56:46.191Z,29.17
2017-10-02T22:59:14.261Z,29.53
2017-10-02T23:01:42.639Z,2.37
2017-10-02T23:04:10.207Z,2.60
2017-10-02T23:06:37.871Z,1.87
2017-10-02T23:09:05.503Z,1.93
2017-10-02T23:11:33.084Z,3.30
2017-10-02T23:14:00.718Z,2.63
2017-10-02T23:16:28.934Z,2.30
2017-10-02T23:18:58.231Z,2.30
2017-10-02T23:21:26.619Z,2.37
2017-10-02T23:23:54.930Z,2.83
2017-10-02T23:26:22.544Z,2.00
2017-10-02T23:28:50.113Z,2.50
2017-10-02T23:31:18.458Z,2.40
2017-10-02T23:33:46.058Z,2.90
2017-10-02T23:36:14.419Z,2.93
2017-10-02T23:38:42.421Z,2.23
2017-10-02T23:41:09.999Z,2.50
2017-10-02T23:43:37.558Z,2.50
2017-10-02T23:46:05.144Z,1.87
2017-10-02T23:48:32.768Z,2.43
2017-10-02T23:51:00.455Z,2.40
2017-10-02T23:53:28.375Z,3.00
2017-10-02T23:55:56.720Z,3.13
2017-10-02T23:58:24.301Z,3.17
